createdAt,value
2023-04-15T00:01:49.875Z,15.15
2023-04-15T00:04:16.547Z,12.50
2023-04-15T00:06:43.109Z,15.25
2023-04-15T00:09:09.517Z,15.85
2023-04-15T00:11:35.921Z,11.60
2023-04-15T00:14:02.353Z,11.80
2023-04-15T00:16:28.841Z,11.20
2023-04-15T00:18:55.539Z,13.10
2023-04-15T00:21:22.131Z,11.68
2023-04-15T00:23:52.643Z,10.55
2023-04-15T00:26:19.674Z,11.95
2023-04-15T00:28:46.741Z,13.23
2023-04-15T00:31:13.332Z,11.88
2023-04-15T00:33:40.120Z,11.13
2023-04-15T00:36:07.323Z,9.80
2023-04-15T00:38:33.776Z,12.63
2023-04-15T00:41:00.228Z,14.10
2023-04-15T00:43:26.665Z,13.52
2023-04-15T00:45:54.505Z,13.82
2023-04-15T00:48:21.279Z,11.57
2023-04-15T00:50:47.713Z,11.93
2023-04-15T00:53:14.101Z,12.50
2023-04-15T00:55:40.595Z,12.35
2023-04-15T00:58:07.135Z,11.60
2023-04-15T01:00:34.568Z,12.73
2023-04-15T01:03:01.734Z,13.55
2023-04-15T01:05:28.542Z,11.27
2023-04-15T01:07:55.430Z,9.80
2023-04-15T01:10:22.170Z,12.10
2023-04-15T01:12:48.726Z,11.70
2023-04-15T01:15:16.047Z,11.98
2023-04-15T01:17:42.752Z,15.20
2023-04-15T01:20:12.568Z,11.38
2023-04-15T01:22:39.343Z,12.98
2023-04-15T01:25:18.768Z,11.82
2023-04-15T01:27:45.623Z,10.07
2023-04-15T01:30:12.206Z,11.60
2023-04-15T01:32:38.782Z,13.23
2023-04-15T01:35:05.768Z,12.50
2023-04-15T01:37:32.579Z,14.05
2023-04-15T01:39:59.001Z,12.82
2023-04-15T01:42:25.403Z,13.13
2023-04-15T01:44:51.992Z,10.68
2023-04-15T01:47:18.576Z,11.98
2023-04-15T01:49:44.957Z,13.50
2023-04-15T01:52:11.441Z,13.98
2023-04-15T01:54:37.868Z,12.80
2023-04-15T01:57:05.533Z,11.18
2023-04-15T01:59:32.169Z,12.95
2023-04-15T02:01:59.041Z,11.45
2023-04-15T02:04:25.586Z,13.27
2023-04-15T02:06:52.007Z,11.63
2023-04-15T02:09:18.463Z,11.18
2023-04-15T02:11:46.240Z,11.57
2023-04-15T02:14:12.719Z,12.63
2023-04-15T02:16:39.207Z,12.48
2023-04-15T02:19:05.707Z,13.10
2023-04-15T02:21:32.174Z,11.15
2023-04-15T02:23:58.588Z,11.57
2023-04-15T02:26:25.353Z,10.02
2023-04-15T02:28:51.761Z,10.98
2023-04-15T02:31:18.504Z,9.97
2023-04-15T02:33:45.371Z,10.85
2023-04-15T02:36:12.442Z,11.55
2023-04-15T02:38:41.281Z,11.77
2023-04-15T02:41:08.606Z,12.68
2023-04-15T02:43:35.146Z,11.70
2023-04-15T02:46:01.612Z,11.23
2023-04-15T02:48:28.413Z,9.95
2023-04-15T02:51:11.161Z,11.55
2023-04-15T02:53:37.580Z,10.95
2023-04-15T02:56:04.371Z,10.37
2023-04-15T02:58:30.770Z,12.65
2023-04-15T03:00:57.649Z,11.77
2023-04-15T03:03:24.248Z,9.93
2023-04-15T03:05:50.784Z,10.20
2023-04-15T03:08:17.203Z,10.63
2023-04-15T03:10:43.585Z,11.30
2023-04-15T03:13:10.065Z,10.43
2023-04-15T03:15:36.503Z,12.00
2023-04-15T03:18:03.059Z,14.15
2023-04-15T03:20:29.640Z,11.80
2023-04-15T03:22:56.048Z,12.52
2023-04-15T03:25:22.551Z,12.35
2023-04-15T03:27:48.983Z,11.05
2023-04-15T03:30:15.454Z,14.23
2023-04-15T03:32:41.863Z,9.90
2023-04-15T03:35:08.725Z,13.82
2023-04-15T03:37:35.693Z,11.52
2023-04-15T03:40:02.386Z,14.27
2023-04-15T03:42:28.806Z,11.23
2023-04-15T03:44:55.226Z,10.77
2023-04-15T03:47:21.701Z,12.30
2023-04-15T03:49:48.143Z,11.70
2023-04-15T03:52:14.539Z,11.90
2023-04-15T03:54:40.978Z,11.68
2023-04-15T03:57:07.451Z,11.53
2023-04-15T03:59:33.914Z,11.40
2023-04-15T04:02:00.460Z,11.52
2023-04-15T04:04:26.952Z,10.30
2023-04-15T04:06:53.549Z,11.10
2023-04-15T04:09:19.992Z,12.67
2023-04-15T04:11:46.648Z,11.43
2023-04-15T04:14:13.071Z,12.77
2023-04-15T04:16:39.514Z,12.40
2023-04-15T04:19:06.327Z,12.27
2023-04-15T04:21:34.192Z,11.93
2023-04-15T04:24:00.652Z,11.65
2023-04-15T04:26:27.103Z,13.70
2023-04-15T04:28:53.539Z,11.32
2023-04-15T04:31:20.142Z,12.95
2023-04-15T04:33:46.611Z,11.17
2023-04-15T04:36:13.039Z,11.80
2023-04-15T04:38:39.451Z,11.57
2023-04-15T04:41:06.204Z,12.45
2023-04-15T04:43:32.591Z,12.32
2023-04-15T04:45:59.052Z,12.67
2023-04-15T04:48:25.972Z,12.95
2023-04-15T04:50:52.718Z,13.13
2023-04-15T04:53:19.208Z,15.05
2023-04-15T04:55:45.618Z,14.82
2023-04-15T04:58:12.503Z,14.73
2023-04-15T05:00:40.391Z,13.32
2023-04-15T05:03:07.111Z,13.70
2023-04-15T05:05:35.490Z,13.70
2023-04-15T05:08:01.986Z,13.07
2023-04-15T05:10:28.408Z,14.50
2023-04-15T05:12:54.826Z,12.27
2023-04-15T05:15:21.486Z,12.15
2023-04-15T05:17:47.931Z,12.48
2023-04-15T05:20:14.520Z,12.25
2023-04-15T05:22:41.043Z,12.27
2023-04-15T05:25:08.596Z,13.48
2023-04-15T05:27:35.024Z,12.00
2023-04-15T05:30:01.919Z,14.25
2023-04-15T05:32:28.404Z,13.55
2023-04-15T05:34:54.817Z,12.47
2023-04-15T05:37:22.277Z,13.70
2023-04-15T05:39:49.107Z,12.05
2023-04-15T05:42:15.590Z,11.98
2023-04-15T05:44:42.153Z,13.52
2023-04-15T05:47:09.705Z,15.93
2023-04-15T05:49:36.356Z,12.07
2023-04-15T05:52:03.413Z,13.05
2023-04-15T05:54:29.853Z,9.43
2023-04-15T05:56:57.630Z,8.68
2023-04-15T05:59:24.065Z,9.27
2023-04-15T06:01:52.137Z,9.63
2023-04-15T06:04:18.680Z,10.55
2023-04-15T06:06:45.198Z,9.85
2023-04-15T06:09:11.765Z,10.82
2023-04-15T06:11:38.170Z,9.00
2023-04-15T06:14:04.576Z,12.00
2023-04-15T06:16:31.165Z,10.32
2023-04-15T06:18:57.583Z,11.70
2023-04-15T06:21:24.006Z,15.10
2023-04-15T06:23:50.618Z,14.40
2023-04-15T06:26:17.033Z,14.63
2023-04-15T06:28:43.436Z,14.85
2023-04-15T06:31:09.908Z,14.98
2023-04-15T06:33:36.897Z,21.88
2023-04-15T06:36:03.407Z,16.27
2023-04-15T06:38:29.988Z,16.67
2023-04-15T06:40:56.372Z,16.10
2023-04-15T06:43:22.787Z,14.57
2023-04-15T06:45:49.252Z,14.98
2023-04-15T06:48:15.818Z,15.80
2023-04-15T06:50:42.555Z,15.95
2023-04-15T06:53:08.956Z,14.57
2023-04-15T06:55:35.438Z,16.05
2023-04-15T06:58:02.039Z,16.48
2023-04-15T07:00:28.802Z,16.27
2023-04-15T07:02:55.783Z,19.30
2023-04-15T07:05:22.491Z,16.10
2023-04-15T07:07:48.892Z,17.52
2023-04-15T07:10:15.836Z,14.68
2023-04-15T07:12:42.375Z,15.73
2023-04-15T07:15:09.049Z,16.83
2023-04-15T07:17:35.512Z,16.65
2023-04-15T07:20:02.579Z,17.30
2023-04-15T07:22:29.059Z,18.52
2023-04-15T07:24:55.770Z,16.43
2023-04-15T07:27:22.425Z,17.83
2023-04-15T07:29:49.088Z,23.50
2023-04-15T07:32:15.536Z,14.38
2023-04-15T07:34:42.220Z,13.02
2023-04-15T07:37:08.727Z,15.47
2023-04-15T07:39:35.185Z,16.73
2023-04-15T07:42:02.361Z,17.27
2023-04-15T07:44:28.927Z,12.48
2023-04-15T07:46:56.494Z,11.70
2023-04-15T07:49:23.361Z,14.37
2023-04-15T07:51:50.536Z,9.45
2023-04-15T07:54:17.148Z,12.13
2023-04-15T07:56:43.569Z,14.68
2023-04-15T07:59:10.434Z,13.07
2023-04-15T08:01:37.687Z,11.57
2023-04-15T08:04:04.223Z,33.85
2023-04-15T08:06:30.873Z,11.80
2023-04-15T08:08:57.545Z,10.60
2023-04-15T08:11:24.578Z,13.10
2023-04-15T08:13:52.672Z,13.10
2023-04-15T08:16:23.503Z,9.85
2023-04-15T08:18:51.498Z,25.38
2023-04-15T08:21:19.281Z,20.40
2023-04-15T08:23:47.396Z,11.57
2023-04-15T08:26:14.235Z,14.50
2023-04-15T08:28:41.727Z,30.30
2023-04-15T08:31:09.439Z,10.88
2023-04-15T08:33:36.298Z,10.27
2023-04-15T08:36:03.365Z,9.60
2023-04-15T08:38:29.939Z,9.63
2023-04-15T08:40:59.945Z,7.97
2023-04-15T08:43:34.928Z,9.30
2023-04-15T08:46:02.343Z,9.88
2023-04-15T08:48:29.728Z,8.77
2023-04-15T08:50:56.751Z,11.93
2023-04-15T08:53:24.764Z,8.93
2023-04-15T08:55:53.767Z,11.65
2023-04-15T08:58:20.379Z,11.40
2023-04-15T09:00:48.653Z,8.45
2023-04-15T09:03:17.545Z,12.87
2023-04-15T09:05:44.112Z,11.55
2023-04-15T09:08:10.551Z,10.13
2023-04-15T09:10:37.007Z,9.60
2023-04-15T09:13:04.519Z,8.75
2023-04-15T09:15:33.003Z,11.33
2023-04-15T09:17:59.481Z,12.80
2023-04-15T09:20:26.379Z,13.30
2023-04-15T09:22:52.865Z,13.32
2023-04-15T09:25:22.370Z,32.55
2023-04-15T09:27:49.838Z,11.10
2023-04-15T09:30:16.882Z,13.70
2023-04-15T09:33:01.101Z,4.18
2023-04-15T09:35:28.761Z,4.80
2023-04-15T09:38:09.843Z,8.32
2023-04-15T09:40:41.852Z,4.57
2023-04-15T09:43:09.874Z,11.98
2023-04-15T09:45:37.105Z,7.25
2023-04-15T09:48:18.763Z,11.55
2023-04-15T09:50:45.203Z,6.70
2023-04-15T09:53:15.492Z,5.47
2023-04-15T09:55:50.383Z,6.10
2023-04-15T09:58:30.137Z,7.10
2023-04-15T10:00:58.340Z,5.60
2023-04-15T10:03:30.050Z,7.38
2023-04-15T10:05:59.013Z,6.30
2023-04-15T10:08:27.963Z,8.45
2023-04-15T10:10:55.143Z,5.45
2023-04-15T10:13:26.822Z,12.95
2023-04-15T10:15:59.061Z,9.00
2023-04-15T10:18:28.121Z,6.43
2023-04-15T10:20:55.526Z,6.88
2023-04-15T10:23:23.215Z,5.43
2023-04-15T10:25:52.606Z,5.55
2023-04-15T10:28:20.183Z,7.82
2023-04-15T10:30:48.003Z,7.40
2023-04-15T10:33:17.171Z,6.68
2023-04-15T10:35:44.114Z,7.75
2023-04-15T10:38:34.037Z,6.57
2023-04-15T10:41:37.810Z,6.72
2023-04-15T10:44:05.388Z,7.27
2023-04-15T10:46:43.255Z,8.77
2023-04-15T10:49:14.420Z,8.90
2023-04-15T10:51:42.766Z,7.47
2023-04-15T10:54:24.294Z,6.07
2023-04-15T10:57:08.916Z,10.03
2023-04-15T10:59:59.288Z,8.35
2023-04-15T11:02:45.346Z,7.00
2023-04-15T11:05:16.370Z,8.25
2023-04-15T11:07:56.084Z,13.48
2023-04-15T11:10:25.555Z,11.07
2023-04-15T11:12:54.214Z,8.90
2023-04-15T11:15:31.050Z,9.05
2023-04-15T11:18:12.531Z,7.45
2023-04-15T11:20:41.224Z,5.72
2023-04-15T11:23:14.122Z,5.53
2023-04-15T11:25:42.821Z,8.00
2023-04-15T11:28:09.448Z,4.93
2023-04-15T11:30:37.481Z,6.65
2023-04-15T11:33:06.253Z,3.80
2023-04-15T11:35:33.422Z,4.40
2023-04-15T11:38:03.904Z,5.50
2023-04-15T11:40:31.714Z,4.57
2023-04-15T11:43:09.368Z,5.03
2023-04-15T11:45:37.328Z,4.93
2023-04-15T11:48:11.070Z,4.60
2023-04-15T11:50:40.860Z,4.88
2023-04-15T11:53:10.088Z,5.00
2023-04-15T11:55:49.341Z,6.80
2023-04-15T11:58:20.228Z,4.72
2023-04-15T12:00:55.442Z,4.50
2023-04-15T12:03:23.824Z,36.33
2023-04-15T12:06:13.389Z,11.10
2023-04-15T12:09:03.854Z,4.38
2023-04-15T12:11:37.812Z,39.70
2023-04-15T12:14:11.300Z,8.77
2023-04-15T12:16:54.157Z,9.35
2023-04-15T12:19:28.775Z,13.95
2023-04-15T12:22:04.150Z,7.10
2023-04-15T12:24:35.907Z,5.25
2023-04-15T12:27:11.215Z,7.90
2023-04-15T12:29:39.685Z,5.47
2023-04-15T12:32:11.137Z,4.38
2023-04-15T12:34:42.377Z,4.25
2023-04-15T12:37:11.261Z,6.25
2023-04-15T12:39:39.879Z,3.60
2023-04-15T12:42:07.066Z,5.43
2023-04-15T12:44:34.208Z,5.45
2023-04-15T12:47:00.741Z,4.72
2023-04-15T12:49:28.407Z,5.90
2023-04-15T12:51:56.759Z,5.03
2023-04-15T12:54:23.405Z,4.28
2023-04-15T12:56:51.183Z,4.38
2023-04-15T12:59:18.560Z,4.35
2023-04-15T13:01:45.582Z,7.05
2023-04-15T13:04:12.220Z,6.30
2023-04-15T13:06:38.706Z,7.68
2023-04-15T13:09:06.143Z,5.05
2023-04-15T13:11:36.705Z,11.55
2023-04-15T13:14:08.960Z,5.65
2023-04-15T13:16:35.902Z,4.63
2023-04-15T13:19:03.626Z,5.25
2023-04-15T13:21:32.215Z,4.32
2023-04-15T13:23:59.358Z,3.55
2023-04-15T13:26:25.777Z,5.82
2023-04-15T13:28:52.453Z,3.47
2023-04-15T13:31:18.863Z,7.38
2023-04-15T13:33:45.417Z,4.95
2023-04-15T13:36:12.002Z,2.40
2023-04-15T13:38:38.474Z,3.20
2023-04-15T13:41:05.020Z,3.90
2023-04-15T13:43:33.623Z,3.33
2023-04-15T13:46:00.217Z,3.60
2023-04-15T13:48:26.679Z,3.47
2023-04-15T13:50:53.072Z,3.95
2023-04-15T13:53:19.536Z,4.30
2023-04-15T13:55:46.321Z,4.68
2023-04-15T13:58:12.721Z,4.60
2023-04-15T14:00:39.219Z,3.47
2023-04-15T14:03:05.828Z,6.07
2023-04-15T14:05:32.865Z,5.17
2023-04-15T14:08:00.001Z,3.33
2023-04-15T14:10:26.389Z,3.42
2023-04-15T14:12:52.846Z,3.72
2023-04-15T14:15:19.311Z,2.85
2023-04-15T14:17:45.953Z,3.67
2023-04-15T14:20:13.541Z,5.20
2023-04-15T14:22:41.109Z,4.05
2023-04-15T14:25:07.872Z,3.75
2023-04-15T14:27:34.304Z,4.68
2023-04-15T14:30:00.875Z,5.57
2023-04-15T14:32:27.307Z,5.75
2023-04-15T14:34:53.799Z,5.68
2023-04-15T14:37:20.459Z,3.83
2023-04-15T14:39:46.864Z,2.88
2023-04-15T14:42:13.273Z,3.93
2023-04-15T14:44:39.697Z,6.70
2023-04-15T14:47:06.227Z,3.97
2023-04-15T14:49:32.772Z,3.22
2023-04-15T14:51:59.179Z,4.13
2023-04-15T14:54:25.724Z,4.23
2023-04-15T14:56:52.262Z,5.70
2023-04-15T14:59:18.661Z,4.88
2023-04-15T15:01:45.534Z,4.55
2023-04-15T15:04:12.983Z,5.25
2023-04-15T15:06:40.135Z,4.80
2023-04-15T15:09:06.774Z,3.55
2023-04-15T15:11:33.452Z,5.13
2023-04-15T15:13:59.988Z,7.35
2023-04-15T15:16:27.673Z,6.65
2023-04-15T15:18:54.120Z,6.30
2023-04-15T15:21:20.622Z,4.70
2023-04-15T15:23:48.251Z,5.93
2023-04-15T15:26:15.064Z,6.65
2023-04-15T15:28:42.196Z,4.47
2023-04-15T15:31:08.838Z,9.27
2023-04-15T15:33:35.301Z,5.70
2023-04-15T15:36:02.163Z,6.15
2023-04-15T15:38:28.582Z,7.85
2023-04-15T15:40:55.012Z,5.43
2023-04-15T15:43:21.471Z,7.53
2023-04-15T15:45:51.627Z,4.85
2023-04-15T15:48:18.541Z,4.68
2023-04-15T15:50:45.762Z,7.10
2023-04-15T15:53:12.436Z,5.72
2023-04-15T15:55:38.847Z,6.87
2023-04-15T15:58:05.257Z,5.53
2023-04-15T16:00:31.705Z,7.10
2023-04-15T16:05:27.565Z,5.07
2023-04-15T16:07:54.092Z,4.87
2023-04-15T16:10:20.536Z,7.20
2023-04-15T16:12:47.048Z,7.07
2023-04-15T16:15:13.876Z,4.38
2023-04-15T16:17:40.352Z,7.35
2023-04-15T16:20:07.408Z,8.60
2023-04-15T16:22:37.361Z,8.23
2023-04-15T16:25:04.067Z,6.03
2023-04-15T16:27:30.528Z,6.43
2023-04-15T16:29:57.024Z,5.07
2023-04-15T16:32:23.612Z,7.53
2023-04-15T16:34:50.085Z,5.43
2023-04-15T16:37:16.516Z,5.07
2023-04-15T16:39:42.999Z,6.28
2023-04-15T16:42:10.167Z,6.85
2023-04-15T16:44:36.594Z,6.90
2023-04-15T16:47:03.155Z,7.55
2023-04-15T16:49:30.284Z,3.83
2023-04-15T16:51:57.244Z,7.22
2023-04-15T16:54:23.664Z,7.07
2023-04-15T16:56:50.075Z,5.00
2023-04-15T16:59:16.607Z,5.95
2023-04-15T17:01:43.087Z,4.72
2023-04-15T17:04:09.605Z,5.22
2023-04-15T17:06:36.258Z,8.02
2023-04-15T17:09:02.916Z,7.23
2023-04-15T17:11:29.425Z,3.63
2023-04-15T17:13:55.941Z,5.80
2023-04-15T17:16:22.440Z,8.00
2023-04-15T17:18:50.427Z,7.70
2023-04-15T17:21:17.645Z,4.97
2023-04-15T17:23:44.112Z,5.75
2023-04-15T17:26:10.714Z,4.55
2023-04-15T17:28:37.242Z,5.93
2023-04-15T17:31:04.678Z,6.00
2023-04-15T17:33:56.265Z,5.93
2023-04-15T17:36:17.530Z,6.05
2023-04-15T17:38:43.954Z,6.80
2023-04-15T17:41:10.643Z,7.78
2023-04-15T17:43:37.147Z,7.78
2023-04-15T17:46:03.699Z,7.00
2023-04-15T17:48:30.154Z,10.93
2023-04-15T17:50:56.663Z,8.85
2023-04-15T17:53:23.121Z,7.13
2023-04-15T17:55:53.037Z,6.50
2023-04-15T17:58:20.109Z,5.87
2023-04-15T18:00:46.912Z,6.05
2023-04-15T18:03:13.559Z,5.93
2023-04-15T18:05:42.429Z,7.20
2023-04-15T18:08:09.501Z,6.22
2023-04-15T18:10:36.891Z,4.03
2023-04-15T18:13:03.467Z,5.45
2023-04-15T18:15:31.240Z,8.30
2023-04-15T18:18:01.173Z,7.10
2023-04-15T18:20:28.067Z,6.10
2023-04-15T18:22:54.657Z,4.63
2023-04-15T18:25:21.288Z,6.80
2023-04-15T18:27:47.750Z,5.60
2023-04-15T18:30:14.180Z,5.20
2023-04-15T18:32:41.122Z,6.97
2023-04-15T18:35:08.042Z,8.10
2023-04-15T18:37:34.705Z,11.13
2023-04-15T18:40:01.342Z,5.10
2023-04-15T18:42:27.788Z,3.20
2023-04-15T18:44:54.602Z,7.80
2023-04-15T18:47:21.212Z,6.17
2023-04-15T18:49:47.716Z,8.25
2023-04-15T18:52:14.175Z,7.20
2023-04-15T18:54:40.601Z,7.85
2023-04-15T18:57:07.228Z,5.35
2023-04-15T18:59:34.007Z,6.53
2023-04-15T19:02:01.421Z,6.15
2023-04-15T19:04:29.377Z,4.57
2023-04-15T19:06:57.286Z,5.35
2023-04-15T19:09:23.718Z,4.53
2023-04-15T19:11:50.367Z,6.43
2023-04-15T19:14:17.759Z,2.95
2023-04-15T19:16:44.228Z,5.25
2023-04-15T19:19:10.651Z,4.93
2023-04-15T19:21:37.072Z,6.40
2023-04-15T19:24:03.640Z,5.87
2023-04-15T19:26:30.201Z,4.63
2023-04-15T19:28:58.911Z,5.38
2023-04-15T19:31:26.203Z,7.65
2023-04-15T19:33:52.920Z,4.10
2023-04-15T19:36:19.453Z,3.10
2023-04-15T19:38:46.005Z,5.80
2023-04-15T19:41:12.523Z,3.28
2023-04-15T19:43:38.926Z,6.22
2023-04-15T19:46:06.432Z,5.25
2023-04-15T19:48:32.966Z,3.63
2023-04-15T19:50:59.817Z,5.63
2023-04-15T19:53:26.401Z,3.28
2023-04-15T19:55:52.796Z,5.22
2023-04-15T19:58:19.183Z,7.53
2023-04-15T20:00:45.600Z,7.77
2023-04-15T20:03:12.158Z,6.70
2023-04-15T20:05:38.691Z,5.35
2023-04-15T20:08:05.189Z,3.85
2023-04-15T20:10:31.957Z,5.68
2023-04-15T20:12:58.469Z,4.47
2023-04-15T20:15:25.016Z,3.97
2023-04-15T20:17:51.701Z,3.95
2023-04-15T20:20:18.511Z,5.97
2023-04-15T20:22:44.930Z,5.78
2023-04-15T20:25:11.473Z,6.63
2023-04-15T20:27:37.950Z,7.93
2023-04-15T20:30:05.096Z,4.85
2023-04-15T20:32:35.254Z,7.30
2023-04-15T20:35:03.341Z,7.30
2023-04-15T20:37:30.973Z,9.17
2023-04-15T20:39:57.410Z,5.45
2023-04-15T20:42:23.816Z,5.35
2023-04-15T20:44:50.491Z,7.25
2023-04-15T20:47:17.058Z,8.57
2023-04-15T20:49:43.617Z,4.53
2023-04-15T20:52:10.589Z,5.35
2023-04-15T20:54:37.027Z,5.97
2023-04-15T20:57:03.568Z,5.88
2023-04-15T20:59:30.486Z,5.90
2023-04-15T21:01:57.450Z,5.73
2023-04-15T21:04:24.485Z,11.65
2023-04-15T21:06:52.576Z,8.23
2023-04-15T21:09:19.129Z,6.50
2023-04-15T21:12:00.346Z,7.35
2023-04-15T21:14:27.346Z,7.33
2023-04-15T21:16:53.827Z,7.93
2023-04-15T21:19:20.209Z,7.85
2023-04-15T21:21:46.616Z,6.45
2023-04-15T21:24:13.036Z,9.63
2023-04-15T21:26:39.428Z,5.47
2023-04-15T21:29:07.854Z,10.70
2023-04-15T21:31:36.047Z,6.18
2023-04-15T21:34:02.547Z,6.35
2023-04-15T21:36:28.991Z,9.40
2023-04-15T21:38:55.385Z,4.23
2023-04-15T21:41:21.831Z,7.47
2023-04-15T21:43:48.435Z,6.13
2023-04-15T21:46:23.090Z,4.93
2023-04-15T21:48:53.152Z,7.82
2023-04-15T21:51:19.980Z,5.10
2023-04-15T21:53:46.764Z,6.25
2023-04-15T21:56:13.268Z,10.45
2023-04-15T21:58:39.683Z,6.28
2023-04-15T22:01:06.450Z,9.15
2023-04-15T22:03:34.527Z,9.60
2023-04-15T22:06:04.431Z,8.18
2023-04-15T22:08:44.550Z,8.38
2023-04-15T22:11:27.412Z,5.20
2023-04-15T22:13:54.671Z,9.32
2023-04-15T22:16:21.178Z,8.73
2023-04-15T22:18:47.674Z,6.88
2023-04-15T22:21:14.448Z,10.48
2023-04-15T22:23:40.947Z,9.10
2023-04-15T22:26:07.710Z,11.60
2023-04-15T22:28:34.120Z,9.30
2023-04-15T22:31:00.611Z,9.82
2023-04-15T22:33:27.063Z,9.10
2023-04-15T22:35:53.465Z,10.55
2023-04-15T22:38:19.880Z,11.35
2023-04-15T22:40:46.452Z,10.03
2023-04-15T22:43:12.868Z,16.83
2023-04-15T22:45:39.265Z,14.10
2023-04-15T22:48:05.875Z,10.10
2023-04-15T22:50:32.351Z,14.80
2023-04-15T22:52:58.762Z,11.43
2023-04-15T22:55:25.232Z,10.77
2023-04-15T22:57:52.671Z,11.85
2023-04-15T23:00:19.278Z,12.77
2023-04-15T23:02:46.107Z,12.48
2023-04-15T23:05:13.297Z,14.07
2023-04-15T23:07:40.147Z,11.57
2023-04-15T23:10:08.062Z,13.68
2023-04-15T23:12:34.875Z,14.25
2023-04-15T23:15:01.310Z,10.70
2023-04-15T23:17:27.771Z,13.23
2023-04-15T23:19:54.224Z,8.90
2023-04-15T23:22:20.727Z,12.43
2023-04-15T23:24:47.112Z,14.90
2023-04-15T23:27:13.504Z,13.23
2023-04-15T23:29:40.008Z,8.27
2023-04-15T23:32:06.704Z,13.02
2023-04-15T23:34:33.217Z,13.20
2023-04-15T23:36:59.617Z,13.05
2023-04-15T23:39:26.513Z,12.93
2023-04-15T23:41:53.298Z,15.03
2023-04-15T23:44:20.329Z,13.15
2023-04-15T23:46:46.786Z,10.57
2023-04-15T23:49:13.358Z,9.13
2023-04-15T23:51:39.773Z,8.32
2023-04-15T23:54:06.225Z,14.33
2023-04-15T23:56:32.599Z,9.18
2023-04-15T23:58:59.009Z,10.80
